createdAt,value
2024-01-31T00:01:42.375Z,54.70
2024-01-31T00:04:10.964Z,66.13
2024-01-31T00:06:39.370Z,65.50
2024-01-31T00:09:07.783Z,66.60
2024-01-31T00:11:35.066Z,62.47
2024-01-31T00:14:08.782Z,63.55
2024-01-31T00:16:37.272Z,59.13
2024-01-31T00:19:05.962Z,67.35
2024-01-31T00:21:34.435Z,65.03
2024-01-31T00:24:02.910Z,67.72
2024-01-31T00:26:31.282Z,63.70
2024-01-31T00:28:59.877Z,59.78
2024-01-31T00:31:29.906Z,65.40
2024-01-31T00:33:58.525Z,67.40
2024-01-31T00:36:26.867Z,65.30
2024-01-31T00:38:55.442Z,67.63
2024-01-31T00:41:23.871Z,64.32
2024-01-31T00:43:55.092Z,61.13
2024-01-31T00:46:23.449Z,65.35
2024-01-31T00:48:53.356Z,75.03
2024-01-31T00:51:21.806Z,65.68
2024-01-31T00:53:50.048Z,63.70
2024-01-31T00:56:18.350Z,66.00
2024-01-31T00:58:46.567Z,65.22
2024-01-31T01:01:15.046Z,66.15
2024-01-31T01:03:44.729Z,68.72
2024-01-31T01:06:14.438Z,64.72
2024-01-31T01:08:42.995Z,66.28
2024-01-31T01:11:11.692Z,61.05
2024-01-31T01:13:40.020Z,67.28
2024-01-31T01:16:08.637Z,64.13
2024-01-31T01:18:37.154Z,66.28
2024-01-31T01:21:06.283Z,67.55
2024-01-31T01:23:35.962Z,66.43
2024-01-31T01:26:04.408Z,58.92
2024-01-31T01:28:32.851Z,67.05
2024-01-31T01:31:05.134Z,65.18
2024-01-31T01:33:33.631Z,64.95
2024-01-31T01:36:04.834Z,65.15
2024-01-31T01:38:33.649Z,64.35
2024-01-31T01:41:03.676Z,66.82
2024-01-31T01:43:32.130Z,67.43
2024-01-31T01:46:12.349Z,67.15
2024-01-31T01:48:41.116Z,64.55
2024-01-31T01:51:09.646Z,65.70
2024-01-31T01:53:38.518Z,76.00
2024-01-31T01:56:10.894Z,62.72
2024-01-31T01:58:39.707Z,64.55
2024-01-31T02:01:09.102Z,65.80
2024-01-31T02:03:37.867Z,60.97
2024-01-31T02:06:06.836Z,66.90
2024-01-31T02:08:35.179Z,56.47
2024-01-31T02:11:04.785Z,64.93
2024-01-31T02:13:34.662Z,64.90
2024-01-31T02:16:02.984Z,71.72
2024-01-31T02:18:31.645Z,68.45
2024-01-31T02:21:00.072Z,69.53
2024-01-31T02:23:29.998Z,71.47
2024-01-31T02:25:58.423Z,70.93
2024-01-31T02:28:26.957Z,61.47
2024-01-31T02:30:57.087Z,66.00
2024-01-31T02:33:25.681Z,69.07
2024-01-31T02:35:54.569Z,62.08
2024-01-31T02:38:22.993Z,68.53
2024-01-31T02:40:52.748Z,62.53
2024-01-31T02:43:21.268Z,68.75
2024-01-31T02:45:49.564Z,67.03
2024-01-31T02:48:17.864Z,65.70
2024-01-31T02:50:46.546Z,64.70
2024-01-31T02:53:14.887Z,69.72
2024-01-31T02:55:43.238Z,72.82
2024-01-31T02:58:13.394Z,72.38
2024-01-31T03:00:41.694Z,63.83
2024-01-31T03:03:10.194Z,71.43
2024-01-31T03:05:38.551Z,62.95
2024-01-31T03:08:07.207Z,68.32
2024-01-31T03:10:35.668Z,65.35
2024-01-31T03:13:03.968Z,65.18
2024-01-31T03:15:33.674Z,62.20
2024-01-31T03:18:02.220Z,72.25
2024-01-31T03:20:30.804Z,67.22
2024-01-31T03:22:59.331Z,65.95
2024-01-31T03:25:27.701Z,69.30
2024-01-31T03:27:56.101Z,67.43
2024-01-31T03:30:24.457Z,73.40
2024-01-31T03:32:54.167Z,72.40
2024-01-31T03:35:23.539Z,68.45
2024-01-31T03:37:52.024Z,72.00
2024-01-31T03:40:23.131Z,64.93
2024-01-31T03:42:52.166Z,57.75
2024-01-31T03:45:20.731Z,66.07
2024-01-31T03:47:52.254Z,65.82
2024-01-31T03:50:21.993Z,67.93
2024-01-31T03:52:53.024Z,64.63
2024-01-31T03:55:21.470Z,65.43
2024-01-31T03:57:49.838Z,61.72
2024-01-31T04:00:18.789Z,63.10
2024-01-31T04:02:47.129Z,63.83
2024-01-31T04:05:16.799Z,75.35
2024-01-31T04:07:47.331Z,77.68
2024-01-31T04:10:16.421Z,61.53
2024-01-31T04:12:44.972Z,65.93
2024-01-31T04:15:13.574Z,63.15
2024-01-31T04:17:41.975Z,61.10
2024-01-31T04:20:12.686Z,64.43
2024-01-31T04:22:41.359Z,67.32
2024-01-31T04:25:11.179Z,60.25
2024-01-31T04:27:39.588Z,66.20
2024-01-31T04:30:12.310Z,60.10
2024-01-31T04:32:40.678Z,62.50
2024-01-31T04:35:12.180Z,68.32
2024-01-31T04:37:41.187Z,66.50
2024-01-31T04:40:12.154Z,66.95
2024-01-31T04:42:41.159Z,66.95
2024-01-31T04:45:10.845Z,68.57
2024-01-31T04:47:39.854Z,54.80
2024-01-31T04:50:09.283Z,68.25
2024-01-31T04:52:38.306Z,61.17
2024-01-31T04:55:07.452Z,63.30
2024-01-31T04:57:37.183Z,66.82
2024-01-31T05:00:07.006Z,62.00
2024-01-31T05:02:35.355Z,63.80
2024-01-31T05:05:04.126Z,60.05
2024-01-31T05:07:32.561Z,56.08
2024-01-31T05:10:01.181Z,62.08
2024-01-31T05:12:29.642Z,64.32
2024-01-31T05:15:02.037Z,65.90
2024-01-31T05:17:30.336Z,65.90
2024-01-31T05:19:58.821Z,62.10
2024-01-31T05:22:28.054Z,68.10
2024-01-31T05:24:59.494Z,58.22
2024-01-31T05:27:27.878Z,62.17
2024-01-31T05:29:56.136Z,60.42
2024-01-31T05:32:26.058Z,62.28
2024-01-31T05:34:54.671Z,62.08
2024-01-31T05:37:23.272Z,58.58
2024-01-31T05:39:51.554Z,64.68
2024-01-31T05:42:20.336Z,60.38
2024-01-31T05:44:48.599Z,59.97
2024-01-31T05:47:17.080Z,58.92
2024-01-31T05:49:47.091Z,65.15
2024-01-31T05:52:15.716Z,60.40
2024-01-31T05:54:44.216Z,61.97
2024-01-31T05:57:12.574Z,60.97
2024-01-31T05:59:43.143Z,57.72
2024-01-31T06:02:12.015Z,62.53
2024-01-31T06:04:41.723Z,61.67
2024-01-31T06:07:13.646Z,59.53
2024-01-31T06:09:42.453Z,62.10
2024-01-31T06:12:10.902Z,76.05
2024-01-31T06:14:39.200Z,56.95
2024-01-31T06:17:07.448Z,63.30
2024-01-31T06:19:35.959Z,63.92
2024-01-31T06:22:04.465Z,59.53
2024-01-31T06:24:34.432Z,77.70
2024-01-31T06:27:02.960Z,63.25
2024-01-31T06:29:31.693Z,63.78
2024-01-31T06:32:02.094Z,67.18
2024-01-31T06:34:33.570Z,67.35
2024-01-31T06:37:02.001Z,66.65
2024-01-31T06:39:30.287Z,66.53
2024-01-31T06:42:00.087Z,68.25
2024-01-31T06:44:28.852Z,64.18
2024-01-31T06:46:57.422Z,69.63
2024-01-31T06:49:26.082Z,66.35
2024-01-31T06:51:54.517Z,68.55
2024-01-31T06:54:23.069Z,63.70
2024-01-31T06:56:54.295Z,84.65
2024-01-31T06:59:23.980Z,77.70
2024-01-31T07:01:52.495Z,67.38
2024-01-31T07:04:22.237Z,69.93
2024-01-31T07:06:53.552Z,88.07
2024-01-31T07:09:22.098Z,74.68
2024-01-31T07:11:50.409Z,66.63
2024-01-31T07:14:19.133Z,74.57
2024-01-31T07:16:49.074Z,67.95
2024-01-31T07:19:17.936Z,69.22
2024-01-31T07:21:49.683Z,68.57
2024-01-31T07:24:24.870Z,73.65
2024-01-31T07:26:58.407Z,62.50
2024-01-31T07:29:26.686Z,70.22
2024-01-31T07:31:56.439Z,65.25
2024-01-31T07:34:27.799Z,77.80
2024-01-31T07:36:56.676Z,64.10
2024-01-31T07:39:25.028Z,65.38
2024-01-31T07:41:53.833Z,63.58
2024-01-31T07:44:22.192Z,63.15
2024-01-31T07:46:50.846Z,72.63
2024-01-31T07:49:21.111Z,62.60
2024-01-31T07:51:54.074Z,60.35
2024-01-31T07:54:22.730Z,62.80
2024-01-31T07:56:51.214Z,62.03
2024-01-31T07:59:19.583Z,62.75
2024-01-31T08:01:48.095Z,65.25
2024-01-31T08:04:16.489Z,60.88
2024-01-31T08:06:46.483Z,58.53
2024-01-31T08:09:22.492Z,58.78
2024-01-31T08:11:54.229Z,54.35
2024-01-31T08:14:22.513Z,56.80
2024-01-31T08:16:52.745Z,63.17
2024-01-31T08:19:21.319Z,56.20
2024-01-31T08:21:51.695Z,53.45
2024-01-31T08:24:21.305Z,50.13
2024-01-31T08:26:49.548Z,58.35
2024-01-31T08:29:23.679Z,51.25
2024-01-31T08:31:56.084Z,60.05
2024-01-31T08:34:27.412Z,63.78
2024-01-31T08:36:59.492Z,59.42
2024-01-31T08:39:27.811Z,53.92
2024-01-31T08:41:56.202Z,53.03
2024-01-31T08:44:24.554Z,56.63
2024-01-31T08:47:04.286Z,52.28
2024-01-31T08:49:45.754Z,62.17
2024-01-31T08:52:15.614Z,64.38
2024-01-31T08:54:44.133Z,67.10
2024-01-31T08:57:16.716Z,59.45
2024-01-31T08:59:46.605Z,52.55
2024-01-31T09:02:15.016Z,49.17
2024-01-31T09:04:45.390Z,43.33
2024-01-31T09:07:16.242Z,55.33
2024-01-31T09:09:53.499Z,51.55
2024-01-31T09:12:21.947Z,44.20
2024-01-31T09:14:50.298Z,50.65
2024-01-31T09:17:18.652Z,46.55
2024-01-31T09:19:47.829Z,49.88
2024-01-31T09:22:18.642Z,43.95
2024-01-31T09:24:47.035Z,48.58
2024-01-31T09:27:17.541Z,48.28
2024-01-31T09:29:45.801Z,49.00
2024-01-31T09:32:16.083Z,52.55
2024-01-31T09:34:44.812Z,44.58
2024-01-31T09:37:13.506Z,44.38
2024-01-31T09:39:43.389Z,47.50
2024-01-31T09:42:14.028Z,48.95
2024-01-31T09:44:43.744Z,50.30
2024-01-31T09:47:14.237Z,46.00
2024-01-31T09:49:45.471Z,41.75
2024-01-31T09:52:16.383Z,42.42
2024-01-31T09:54:48.977Z,44.42
2024-01-31T09:57:17.317Z,41.13
2024-01-31T09:59:46.956Z,40.15
2024-01-31T10:02:16.727Z,37.83
2024-01-31T10:04:48.596Z,43.95
2024-01-31T10:07:25.151Z,34.28
2024-01-31T10:09:56.408Z,38.65
2024-01-31T10:12:25.125Z,40.47
2024-01-31T10:14:53.791Z,53.03
2024-01-31T10:17:22.459Z,50.92
2024-01-31T10:19:51.571Z,47.17
2024-01-31T10:22:20.819Z,40.45
2024-01-31T10:24:51.705Z,39.88
2024-01-31T10:27:23.240Z,40.97
2024-01-31T10:29:51.656Z,43.20
2024-01-31T10:32:22.498Z,34.08
2024-01-31T10:35:11.050Z,40.67
2024-01-31T10:40:13.331Z,34.60
2024-01-31T10:42:45.291Z,30.75
2024-01-31T10:45:14.111Z,34.05
2024-01-31T10:47:45.710Z,34.75
2024-01-31T10:50:14.984Z,33.22
2024-01-31T10:52:44.191Z,33.80
2024-01-31T10:55:13.618Z,56.00
2024-01-31T10:57:44.323Z,102.93
2024-01-31T11:00:24.575Z,63.83
2024-01-31T11:02:53.235Z,132.63
2024-01-31T11:05:24.819Z,176.05
2024-01-31T11:07:53.335Z,104.63
2024-01-31T11:10:23.342Z,91.78
2024-01-31T11:13:03.141Z,123.10
2024-01-31T11:15:32.375Z,207.30
2024-01-31T11:18:07.967Z,113.13
2024-01-31T11:20:37.800Z,85.65
2024-01-31T11:23:06.738Z,54.80
2024-01-31T11:25:36.679Z,51.42
2024-01-31T11:28:07.998Z,44.42
2024-01-31T11:30:36.310Z,48.13
2024-01-31T11:33:05.569Z,46.75
2024-01-31T11:35:34.230Z,47.55
2024-01-31T11:38:03.079Z,38.60
2024-01-31T11:40:31.791Z,44.45
2024-01-31T11:43:00.294Z,79.85
2024-01-31T11:45:30.094Z,108.57
2024-01-31T11:48:00.085Z,174.88
2024-01-31T11:50:28.996Z,177.55
2024-01-31T11:52:58.991Z,70.63
2024-01-31T11:55:31.071Z,53.95
2024-01-31T11:57:59.563Z,48.22
2024-01-31T12:00:30.739Z,41.85
2024-01-31T12:02:59.166Z,50.67
2024-01-31T12:05:27.705Z,41.95
2024-01-31T12:07:59.831Z,41.65
2024-01-31T12:10:28.817Z,38.15
2024-01-31T12:12:59.502Z,42.47
2024-01-31T12:15:31.870Z,43.97
2024-01-31T12:18:03.933Z,41.78
2024-01-31T12:20:33.068Z,41.72
2024-01-31T12:23:01.750Z,39.03
2024-01-31T12:25:30.138Z,41.33
2024-01-31T12:27:58.646Z,40.30
2024-01-31T12:30:27.161Z,40.45
2024-01-31T12:32:57.078Z,35.80
2024-01-31T12:35:28.662Z,35.92
2024-01-31T12:37:57.172Z,34.03
2024-01-31T12:40:27.073Z,39.55
2024-01-31T12:43:00.580Z,32.40
2024-01-31T12:45:29.404Z,29.52
2024-01-31T12:47:59.494Z,33.60
2024-01-31T12:50:28.750Z,28.35
2024-01-31T12:52:57.390Z,32.92
2024-01-31T12:55:27.668Z,32.78
2024-01-31T12:57:59.089Z,27.13
2024-01-31T13:00:27.424Z,31.80
2024-01-31T13:02:56.112Z,23.95
2024-01-31T13:05:26.305Z,22.10
2024-01-31T13:07:58.213Z,16.05
2024-01-31T13:10:28.818Z,20.10
2024-01-31T13:12:59.279Z,17.52
2024-01-31T13:15:28.706Z,21.67
2024-01-31T13:17:57.475Z,25.88
2024-01-31T13:20:27.242Z,20.35
2024-01-31T13:22:55.542Z,22.85
2024-01-31T13:25:25.753Z,22.38
2024-01-31T13:27:54.084Z,18.95
2024-01-31T13:30:22.934Z,20.95
2024-01-31T13:32:51.764Z,17.45
2024-01-31T13:35:20.657Z,20.45
2024-01-31T13:37:50.598Z,24.20
2024-01-31T13:40:19.290Z,23.50
2024-01-31T13:42:52.135Z,31.15
2024-01-31T13:45:22.980Z,28.05
2024-01-31T13:48:00.777Z,33.28
2024-01-31T13:50:29.520Z,39.60
2024-01-31T13:52:59.588Z,31.52
2024-01-31T13:55:32.486Z,31.80
2024-01-31T13:58:00.903Z,36.42
2024-01-31T14:00:29.227Z,37.22
2024-01-31T14:03:00.597Z,34.47
2024-01-31T14:05:31.236Z,34.30
2024-01-31T14:08:04.301Z,33.42
2024-01-31T14:10:32.581Z,32.60
2024-01-31T14:13:00.922Z,34.22
2024-01-31T14:15:32.071Z,33.15
2024-01-31T14:18:04.365Z,36.20
2024-01-31T14:20:33.616Z,38.92
2024-01-31T14:23:14.330Z,43.83
2024-01-31T14:25:57.225Z,43.85
2024-01-31T14:28:28.522Z,52.10
2024-01-31T14:31:02.800Z,46.08
2024-01-31T14:33:31.761Z,49.30
2024-01-31T14:36:00.717Z,46.83
2024-01-31T14:38:33.843Z,53.63
2024-01-31T14:41:04.352Z,55.80
2024-01-31T14:43:34.349Z,71.72
2024-01-31T14:46:02.926Z,79.50
2024-01-31T14:48:31.446Z,72.50
2024-01-31T14:51:00.154Z,54.58
2024-01-31T14:53:30.203Z,42.00
2024-01-31T14:55:58.500Z,44.63
2024-01-31T14:58:26.957Z,43.75
2024-01-31T15:00:55.243Z,43.28
2024-01-31T15:03:24.008Z,52.38
2024-01-31T15:05:52.521Z,50.55
2024-01-31T15:08:20.908Z,58.40
2024-01-31T15:10:51.066Z,45.95
2024-01-31T15:13:19.474Z,44.00
2024-01-31T15:15:47.910Z,49.28
2024-01-31T15:18:16.584Z,46.42
2024-01-31T15:20:45.208Z,45.55
2024-01-31T15:23:14.264Z,47.90
2024-01-31T15:25:42.608Z,49.55
2024-01-31T15:28:13.055Z,48.28
2024-01-31T15:30:41.494Z,47.03
2024-01-31T15:33:09.955Z,51.80
2024-01-31T15:35:40.645Z,43.72
2024-01-31T15:38:09.304Z,48.25
2024-01-31T15:40:37.612Z,73.28
2024-01-31T15:43:06.350Z,81.13
2024-01-31T15:45:36.110Z,95.88
2024-01-31T15:48:05.035Z,109.60
2024-01-31T15:50:33.507Z,67.93
2024-01-31T15:53:03.701Z,62.08
2024-01-31T15:55:32.215Z,58.90
2024-01-31T15:58:00.562Z,49.03
2024-01-31T16:00:30.040Z,53.72
2024-01-31T16:03:08.150Z,60.63
2024-01-31T16:05:36.586Z,65.18
2024-01-31T16:08:05.269Z,67.40
2024-01-31T16:10:33.933Z,90.82
2024-01-31T16:13:02.448Z,57.13
2024-01-31T16:15:41.421Z,67.28
2024-01-31T16:18:12.329Z,79.68
2024-01-31T16:20:45.549Z,50.05
2024-01-31T16:23:15.917Z,54.38
2024-01-31T16:25:46.327Z,58.17
2024-01-31T16:28:14.804Z,60.47
2024-01-31T16:30:43.148Z,83.60
2024-01-31T16:33:13.140Z,73.85
2024-01-31T16:35:42.034Z,64.50
2024-01-31T16:38:10.544Z,44.03
2024-01-31T16:40:39.276Z,51.38
2024-01-31T16:43:07.752Z,40.97
2024-01-31T16:45:37.804Z,45.72
2024-01-31T16:48:07.358Z,49.33
2024-01-31T16:50:40.408Z,50.45
2024-01-31T16:53:11.578Z,44.97
2024-01-31T16:55:43.428Z,55.40
2024-01-31T16:58:11.914Z,47.03
2024-01-31T17:00:40.188Z,85.03
2024-01-31T17:03:08.599Z,57.85
2024-01-31T17:05:36.985Z,58.45
2024-01-31T17:08:07.325Z,60.78
2024-01-31T17:10:35.789Z,63.35
2024-01-31T17:13:06.872Z,60.85
2024-01-31T17:15:35.265Z,72.15
2024-01-31T17:18:04.990Z,60.75
2024-01-31T17:20:33.636Z,56.45
2024-01-31T17:23:02.645Z,58.17
2024-01-31T17:25:33.029Z,58.13
2024-01-31T17:28:01.620Z,56.55
2024-01-31T17:30:29.956Z,54.15
2024-01-31T17:32:58.713Z,54.92
2024-01-31T17:35:34.569Z,49.03
2024-01-31T17:38:03.287Z,41.70
2024-01-31T17:40:34.037Z,57.50
2024-01-31T17:43:02.450Z,50.38
2024-01-31T17:45:33.218Z,44.03
2024-01-31T17:48:01.737Z,41.22
2024-01-31T17:50:32.463Z,46.63
2024-01-31T17:53:00.798Z,44.63
2024-01-31T17:55:29.382Z,51.72
2024-01-31T17:57:59.392Z,49.88
2024-01-31T18:00:27.745Z,44.03
2024-01-31T18:02:56.622Z,48.58
2024-01-31T18:05:25.042Z,49.20
2024-01-31T18:07:53.339Z,45.25
2024-01-31T18:10:21.670Z,44.65
2024-01-31T18:12:53.331Z,46.95
2024-01-31T18:15:28.655Z,40.80
2024-01-31T18:17:57.669Z,46.47
2024-01-31T18:20:26.238Z,45.80
2024-01-31T18:22:54.633Z,66.32
2024-01-31T18:25:23.045Z,75.45
2024-01-31T18:27:56.655Z,73.53
2024-01-31T18:30:29.500Z,70.05
2024-01-31T18:33:00.958Z,43.28
2024-01-31T18:35:29.310Z,45.70
2024-01-31T18:37:57.624Z,60.60
2024-01-31T18:40:25.984Z,44.85
2024-01-31T18:42:54.404Z,46.95
2024-01-31T18:45:23.225Z,43.97
2024-01-31T18:47:56.732Z,52.33
2024-01-31T18:50:28.233Z,67.10
2024-01-31T18:52:59.373Z,51.55
2024-01-31T18:55:28.334Z,57.40
2024-01-31T18:57:59.237Z,49.67
2024-01-31T19:00:27.549Z,49.17
2024-01-31T19:02:57.941Z,62.03
2024-01-31T19:05:28.852Z,61.78
2024-01-31T19:07:57.256Z,66.57
2024-01-31T19:10:25.923Z,60.53
2024-01-31T19:12:54.407Z,75.70
2024-01-31T19:15:23.377Z,75.97
2024-01-31T19:17:53.150Z,75.90
2024-01-31T19:20:24.274Z,60.15
2024-01-31T19:22:53.170Z,53.90
2024-01-31T19:25:21.684Z,60.85
2024-01-31T19:27:59.137Z,65.75
2024-01-31T19:30:27.796Z,65.93
2024-01-31T19:32:56.907Z,74.28
2024-01-31T19:35:29.828Z,80.85
2024-01-31T19:37:58.429Z,83.22
2024-01-31T19:40:32.853Z,74.95
2024-01-31T19:43:13.200Z,68.90
2024-01-31T19:46:07.970Z,61.63
2024-01-31T19:49:10.524Z,61.83
2024-01-31T19:51:55.809Z,70.75
2024-01-31T19:54:45.903Z,64.80
2024-01-31T19:57:29.490Z,72.32
2024-01-31T20:00:09.047Z,76.88
2024-01-31T20:02:37.700Z,69.72
2024-01-31T20:05:06.821Z,67.47
2024-01-31T20:07:42.879Z,74.63
2024-01-31T20:10:31.900Z,71.93
2024-01-31T20:13:06.589Z,89.38
2024-01-31T20:15:38.228Z,90.60
2024-01-31T20:18:06.980Z,82.72
2024-01-31T20:20:36.488Z,91.22
2024-01-31T20:23:06.335Z,88.50
2024-01-31T20:25:34.890Z,112.00
2024-01-31T20:28:03.283Z,95.63
2024-01-31T20:30:37.248Z,92.22
2024-01-31T20:33:07.928Z,113.45
2024-01-31T20:35:37.761Z,95.00
2024-01-31T20:38:07.982Z,92.45
2024-01-31T20:40:36.754Z,94.38
2024-01-31T20:43:05.962Z,92.97
2024-01-31T20:45:43.058Z,97.25
2024-01-31T20:48:17.355Z,115.43
2024-01-31T20:50:48.830Z,89.63
2024-01-31T20:53:18.628Z,102.80
2024-01-31T20:55:49.964Z,107.22
2024-01-31T20:58:21.768Z,92.10
2024-01-31T21:00:53.444Z,95.88
2024-01-31T21:03:22.107Z,84.97
2024-01-31T21:05:51.818Z,96.32
2024-01-31T21:08:22.112Z,111.32
2024-01-31T21:10:50.518Z,100.82
2024-01-31T21:13:20.634Z,99.43
2024-01-31T21:16:00.417Z,109.10
2024-01-31T21:18:31.458Z,103.72
2024-01-31T21:21:00.324Z,109.53
2024-01-31T21:23:30.601Z,96.85
2024-01-31T21:25:59.359Z,101.53
2024-01-31T21:28:28.333Z,102.55
2024-01-31T21:30:56.917Z,93.65
2024-01-31T21:33:27.902Z,106.20
2024-01-31T21:36:00.523Z,101.45
2024-01-31T21:38:31.677Z,102.53
2024-01-31T21:41:01.078Z,98.43
2024-01-31T21:43:29.821Z,97.15
2024-01-31T21:45:58.196Z,97.70
2024-01-31T21:48:31.246Z,107.13
2024-01-31T21:51:02.727Z,88.78
2024-01-31T21:53:32.761Z,96.18
2024-01-31T21:56:01.262Z,84.57
2024-01-31T21:58:29.606Z,84.40
2024-01-31T22:00:58.176Z,84.00
2024-01-31T22:05:55.920Z,87.18
2024-01-31T22:08:24.616Z,88.82
2024-01-31T22:10:57.450Z,98.18
2024-01-31T22:13:34.746Z,88.15
2024-01-31T22:16:05.835Z,85.20
2024-01-31T22:18:34.491Z,86.30
2024-01-31T22:21:03.337Z,79.22
2024-01-31T22:23:31.782Z,95.03
2024-01-31T22:26:02.626Z,88.50
2024-01-31T22:28:31.040Z,82.28
2024-01-31T22:30:59.563Z,88.75
2024-01-31T22:33:28.086Z,91.60
2024-01-31T22:35:56.833Z,89.10
2024-01-31T22:38:25.737Z,91.10
2024-01-31T22:40:57.021Z,97.75
2024-01-31T22:43:26.936Z,91.97
2024-01-31T22:46:09.305Z,89.65
2024-01-31T22:48:40.860Z,80.25
2024-01-31T22:51:09.828Z,100.43
2024-01-31T22:53:41.279Z,86.03
2024-01-31T22:56:11.514Z,75.93
2024-01-31T22:58:41.266Z,83.70
2024-01-31T23:01:12.887Z,90.45
2024-01-31T23:03:41.988Z,85.57
2024-01-31T23:06:10.793Z,90.10
2024-01-31T23:08:39.488Z,88.60
2024-01-31T23:11:08.199Z,89.30
2024-01-31T23:13:39.491Z,76.63
2024-01-31T23:16:09.429Z,85.13
2024-01-31T23:18:37.945Z,75.85
2024-01-31T23:21:07.223Z,84.65
2024-01-31T23:23:35.957Z,81.05
2024-01-31T23:26:04.591Z,85.00
2024-01-31T23:28:32.918Z,76.28
2024-01-31T23:31:01.404Z,92.15
2024-01-31T23:33:31.577Z,85.28
2024-01-31T23:36:00.150Z,65.68
2024-01-31T23:38:31.301Z,80.78
2024-01-31T23:40:59.662Z,71.93
2024-01-31T23:43:31.014Z,70.00
2024-01-31T23:45:59.415Z,67.47
2024-01-31T23:48:28.272Z,82.28
2024-01-31T23:50:58.419Z,72.88
2024-01-31T23:53:30.917Z,60.97
2024-01-31T23:55:59.674Z,71.78
2024-01-31T23:58:27.987Z,61.90
